Time;durP1;ratioP1;P1;durP2;ratioP2;P2;SDS_P1;SDS_P2;PMS_P1;PMS_P2;Temp;Humidity;BMP_temperature;BMP_pressure;BME280_temperature;BME280_humidity;BME280_pressure;Samples;Min_cycle;Max_cycle;Signal;HPM_P1;HPM_P2
2022/08/16 00:00:10;;;;;;;14.02;8.07;;;;;;;17.38;87.86;98520.88;5095818;28;20469;-58
2022/08/16 00:02:35;;;;;;;15.85;8.52;;;;;;;17.29;88.10;98512.66;5095034;28;20363;-58
2022/08/16 00:05:13;;;;;;;16.05;8.65;;;;;;;17.25;88.61;98512.47;5121049;28;20035;-59
2022/08/16 00:07:57;;;;;;;16.00;8.13;;;;;;;17.24;89.30;98520.91;5108194;28;20036;-58
2022/08/16 00:10:24;;;;;;;16.05;9.52;;;;;;;17.22;89.47;98517.69;5108745;28;20431;-58
2022/08/16 00:12:49;;;;;;;17.45;8.93;;;;;;;17.23;89.52;98505.78;5111482;27;20032;-58
2022/08/16 00:15:17;;;;;;;19.65;9.05;;;;;;;17.27;89.40;98528.41;5093394;28;20031;-58
2022/08/16 00:17:43;;;;;;;15.95;8.90;;;;;;;17.23;89.28;98525.53;5111729;27;20015;-58
2022/08/16 00:20:17;;;;;;;16.83;8.77;;;;;;;17.27;89.33;98531.13;5116451;27;20481;-58
2022/08/16 00:22:50;;;;;;;15.15;8.52;;;;;;;17.29;89.44;98534.34;5131508;27;20462;-58
2022/08/16 00:25:16;;;;;;;16.45;8.23;;;;;;;17.18;89.71;98527.53;5107864;28;20084;-57
2022/08/16 00:27:42;;;;;;;17.23;8.73;;;;;;;17.20;89.59;98538.88;5111472;27;20027;-58
2022/08/16 00:30:08;;;;;;;17.38;9.25;;;;;;;17.18;89.82;98543.78;5111778;27;20069;-58
2022/08/16 00:32:35;;;;;;;13.68;8.43;;;;;;;17.18;90.24;98543.78;5093095;28;20444;-58
2022/08/16 00:35:00;;;;;;;14.43;8.23;;;;;;;17.17;90.21;98547.59;5110659;27;20351;-58
2022/08/16 00:37:26;;;;;;;18.95;8.98;;;;;;;17.12;90.73;98542.28;5076169;28;20465;-58
2022/08/16 00:39:52;;;;;;;12.38;8.63;;;;;;;17.07;91.26;98547.78;5084991;28;20028;-58
2022/08/16 00:42:18;;;;;;;17.35;9.23;;;;;;;16.98;91.38;98545.78;5111285;27;20033;-58
2022/08/16 00:44:50;;;;;;;18.65;9.60;;;;;;;17.07;91.60;98550.50;5092724;27;20027;-58
2022/08/16 00:47:16;;;;;;;16.83;9.68;;;;;;;17.09;91.48;98545.59;5102229;28;20458;-58
2022/08/16 00:49:41;;;;;;;14.27;9.30;;;;;;;17.09;91.76;98538.25;5075275;28;20142;-58
2022/08/16 00:52:07;;;;;;;15.27;9.52;;;;;;;17.11;91.76;98537.97;5092763;28;20081;-58
2022/08/16 00:54:33;;;;;;;17.98;9.82;;;;;;;17.20;91.26;98536.16;5093036;28;20348;-58
2022/08/16 00:56:58;;;;;;;16.27;9.90;;;;;;;17.13;91.43;98531.16;5111148;27;20023;-58
2022/08/16 00:59:26;;;;;;;24.50;9.07;;;;;;;17.12;91.49;98528.72;5098241;27;20027;-58
2022/08/16 01:01:52;;;;;;;18.80;9.38;;;;;;;17.15;91.29;98528.16;5117545;27;20023;-58
2022/08/16 01:04:20;;;;;;;16.27;10.18;;;;;;;17.16;91.38;98535.16;5092743;28;20031;-58
2022/08/16 01:06:46;;;;;;;18.98;9.13;;;;;;;17.16;91.53;98530.53;5092782;28;20030;-58
2022/08/16 01:09:11;;;;;;;15.40;9.20;;;;;;;17.10;91.95;98534.47;5110854;28;20122;-58
2022/08/16 01:11:37;;;;;;;16.27;10.52;;;;;;;17.00;92.26;98526.56;5110840;28;20362;-57
2022/08/16 01:14:20;;;;;;;20.05;9.63;;;;;;;17.11;92.16;98532.56;5110562;28;20062;-58
2022/08/16 01:16:46;;;;;;;15.13;9.48;;;;;;;17.03;92.57;98531.38;5091892;28;20405;-58
2022/08/16 01:19:22;;;;;;;18.98;9.05;;;;;;;17.02;92.79;98538.69;5077738;28;20032;-58
2022/08/16 01:22:07;;;;;;;20.73;9.65;;;;;;;16.96;93.15;98537.16;5092578;28;20024;-58
2022/08/16 01:24:36;;;;;;;17.33;9.80;;;;;;;16.95;93.30;98537.50;5086392;28;20035;-58
2022/08/16 01:27:05;;;;;;;15.68;9.20;;;;;;;16.82;94.01;98536.34;5107343;28;20038;-58
2022/08/16 01:29:35;;;;;;;23.15;10.40;;;;;;;16.90;93.88;98541.09;5092231;28;20027;-58
2022/08/16 01:32:00;;;;;;;;;;;;;;;16.84;94.29;98539.56;5059844;28;20172;-58
2022/08/16 01:34:26;;;;;;;19.50;9.75;;;;;;;16.81;94.53;98527.44;5110329;28;20014;-58
2022/08/16 01:37:06;;;;;;;17.70;9.18;;;;;;;16.85;94.52;98529.53;5084361;28;20031;-58
2022/08/16 01:39:32;;;;;;;22.25;10.07;;;;;;;16.88;94.09;98542.50;5092408;28;20052;-58
2022/08/16 01:41:58;;;;;;;18.00;10.07;;;;;;;16.89;93.67;98534.06;5110330;28;20381;-58
2022/08/16 01:44:23;;;;;;;16.52;9.75;;;;;;;16.86;93.81;98531.16;5092503;28;20024;-58
2022/08/16 01:46:49;;;;;;;17.70;9.68;;;;;;;16.86;94.08;98537.38;5092970;28;20031;-58
2022/08/16 01:49:25;;;;;;;18.30;9.75;;;;;;;16.89;94.25;98528.66;5093137;28;20352;-58
2022/08/16 01:51:55;;;;;;;18.33;10.50;;;;;;;16.85;94.39;98546.59;5098302;28;20038;-58
2022/08/16 01:54:20;;;;;;;18.55;10.63;;;;;;;16.85;94.20;98527.66;5110786;28;20390;-58
2022/08/16 01:56:46;;;;;;;19.63;10.25;;;;;;;16.79;94.65;98531.56;5110251;28;20036;-58
2022/08/16 01:59:12;;;;;;;26.15;10.95;;;;;;;16.68;95.01;98513.91;5092167;28;20067;-58
2022/08/16 02:01:38;;;;;;;20.00;11.05;;;;;;;16.71;95.27;98526.81;5110123;28;20485;-58
2022/08/16 02:04:03;;;;;;;17.15;10.43;;;;;;;16.68;95.61;98524.72;5092672;28;20019;-58
2022/08/16 02:06:29;;;;;;;21.88;11.05;;;;;;;16.71;94.99;98526.81;5096950;28;20028;-58
2022/08/16 02:08:54;;;;;;;18.35;10.88;;;;;;;16.61;95.96;98515.06;5109528;28;20089;-58
2022/08/16 02:11:24;;;;;;;16.83;10.38;;;;;;;16.57;96.12;98521.38;5110455;28;20028;-58
2022/08/16 02:13:50;;;;;;;20.80;10.98;;;;;;;16.55;96.07;98519.00;5082487;28;20692;-58
2022/08/16 02:16:16;;;;;;;15.65;10.57;;;;;;;16.47;96.70;98511.53;5110795;28;20038;-58
2022/08/16 02:18:41;;;;;;;19.27;10.75;;;;;;;16.50;97.21;98512.84;5113763;27;20050;-58
2022/08/16 02:21:07;;;;;;;18.85;10.95;;;;;;;16.46;97.65;98518.06;5100742;28;20028;-58
2022/08/16 02:23:33;;;;;;;18.15;10.80;;;;;;;16.48;97.69;98521.28;5112641;27;20119;-58
2022/08/16 02:25:59;;;;;;;24.30;12.38;;;;;;;16.42;98.26;98530.56;5095602;28;20015;-58
2022/08/16 02:28:27;;;;;;;25.75;12.55;;;;;;;16.47;97.95;98530.47;5083847;28;20015;-58
2022/08/16 02:30:53;;;;;;;20.40;10.98;;;;;;;16.42;98.16;98522.47;5113181;27;20270;-58
2022/08/16 02:33:20;;;;;;;18.60;11.63;;;;;;;16.40;98.42;98535.50;5095321;28;20023;-58
2022/08/16 02:35:45;;;;;;;20.83;11.68;;;;;;;16.39;98.54;98531.16;5113563;27;20100;-58
2022/08/16 02:38:11;;;;;;;24.70;11.50;;;;;;;16.38;98.82;98533.09;5114797;27;20466;-58
2022/08/16 02:40:38;;;;;;;20.80;11.38;;;;;;;16.32;99.21;98528.03;5117377;27;20367;-58
2022/08/16 02:43:04;;;;;;;23.63;12.73;;;;;;;16.24;99.73;98509.81;5100783;27;20487;-58
2022/08/16 02:45:31;;;;;;;21.42;13.07;;;;;;;16.25;100.00;98516.81;5113284;27;20023;-58
2022/08/16 02:47:57;;;;;;;26.60;12.48;;;;;;;16.26;100.00;98521.13;5113289;28;20107;-58
2022/08/16 02:50:22;;;;;;;21.83;12.68;;;;;;;16.23;100.00;98524.44;5112649;27;20039;-58
2022/08/16 02:52:53;;;;;;;20.88;12.27;;;;;;;16.18;100.00;98526.13;5113228;27;20030;-58
2022/08/16 02:55:19;;;;;;;27.67;12.68;;;;;;;16.21;100.00;98522.03;5113453;27;20453;-58
2022/08/16 02:57:46;;;;;;;24.25;13.07;;;;;;;16.24;100.00;98528.72;5112974;27;20038;-58
2022/08/16 03:00:12;;;;;;;22.92;12.25;;;;;;;16.25;100.00;98522.22;5094105;27;20032;-58
2022/08/16 03:02:39;;;;;;;21.42;13.98;;;;;;;16.23;100.00;98529.84;5117105;27;20498;-58
2022/08/16 03:05:05;;;;;;;19.70;12.35;;;;;;;16.18;100.00;98526.13;5120357;27;20020;-57
2022/08/16 03:07:30;;;;;;;22.27;12.75;;;;;;;16.18;100.00;98528.81;5094778;28;20389;-58
2022/08/16 03:09:59;;;;;;;24.52;13.95;;;;;;;16.14;100.00;98530.50;5112814;27;20035;-58
2022/08/16 03:12:25;;;;;;;25.40;13.38;;;;;;;16.17;100.00;98531.81;5112342;27;20074;-58
2022/08/16 03:14:50;;;;;;;28.02;14.23;;;;;;;16.14;100.00;98517.00;5112553;27;20020;-58
2022/08/16 03:17:16;;;;;;;24.77;12.98;;;;;;;16.26;100.00;98531.94;5112916;27;20035;-58
2022/08/16 03:19:42;;;;;;;23.90;13.73;;;;;;;16.24;100.00;98526.81;5094192;27;20147;-58
2022/08/16 03:22:07;;;;;;;29.50;12.90;;;;;;;16.18;100.00;98539.63;5110125;28;20029;-57
2022/08/16 03:24:33;;;;;;;22.77;13.77;;;;;;;16.22;100.00;98537.13;5112536;27;20023;-58
2022/08/16 03:26:59;;;;;;;23.02;11.98;;;;;;;16.28;100.00;98535.97;5094080;28;20030;-58
2022/08/16 03:29:30;;;;;;;26.90;14.13;;;;;;;16.25;100.00;98538.44;5114163;27;20039;-58
2022/08/16 03:31:57;;;;;;;22.20;14.02;;;;;;;16.30;100.00;98530.25;5095015;27;20072;-58
2022/08/16 03:34:22;;;;;;;23.38;13.63;;;;;;;16.29;100.00;98539.47;5112060;27;20057;-58
2022/08/16 03:36:48;;;;;;;23.27;13.85;;;;;;;16.30;100.00;98532.94;5112497;27;20023;-58
2022/08/16 03:39:13;;;;;;;24.95;14.13;;;;;;;16.28;100.00;98537.88;5112342;27;20031;-61
2022/08/16 03:41:40;;;;;;;25.63;13.88;;;;;;;16.30;100.00;98543.75;5098609;27;20050;-58
2022/08/16 03:44:06;;;;;;;21.13;13.07;;;;;;;16.28;100.00;98535.16;5111639;27;20027;-58
2022/08/16 03:46:32;;;;;;;21.45;12.98;;;;;;;16.28;100.00;98535.16;5112249;27;20046;-58
2022/08/16 03:48:58;;;;;;;21.20;13.15;;;;;;;16.27;100.00;98528.13;5111839;28;20035;-58
2022/08/16 03:51:23;;;;;;;22.88;13.70;;;;;;;16.26;100.00;98532.75;5111547;27;20496;-58
2022/08/16 03:53:49;;;;;;;27.17;14.30;;;;;;;16.24;100.00;98534.16;5094660;28;20019;-58
2022/08/16 03:56:14;;;;;;;22.95;13.07;;;;;;;16.31;100.00;98537.28;5080660;27;20036;-58
2022/08/16 03:58:42;;;;;;;22.40;12.95;;;;;;;16.30;100.00;98544.59;5099283;28;20031;-58
2022/08/16 04:01:08;;;;;;;22.35;13.73;;;;;;;16.31;100.00;98531.88;5112214;27;20024;-58
2022/08/16 04:03:33;;;;;;;22.65;13.68;;;;;;;16.39;100.00;98533.88;5093831;28;20022;-58
2022/08/16 04:05:59;;;;;;;25.02;14.30;;;;;;;16.39;100.00;98523.84;5111451;27;20136;-58
2022/08/16 04:08:24;;;;;;;25.90;14.13;;;;;;;16.40;100.00;98530.09;5112096;27;20024;-58
2022/08/16 04:10:54;;;;;;;22.25;13.32;;;;;;;16.38;100.00;98527.66;5120497;27;20023;-58
2022/08/16 04:13:20;;;;;;;24.50;13.60;;;;;;;16.43;100.00;98537.59;5115778;27;20431;-58
2022/08/16 04:15:46;;;;;;;24.13;13.80;;;;;;;16.38;100.00;98535.00;5108319;28;20041;-58
2022/08/16 04:18:12;;;;;;;21.23;14.13;;;;;;;16.36;100.00;98527.16;5111524;27;20059;-58
2022/08/16 04:20:38;;;;;;;25.35;13.32;;;;;;;16.31;100.00;98527.25;5113286;27;20466;-58
2022/08/16 04:23:07;;;;;;;26.20;14.52;;;;;;;16.37;100.00;98534.19;5100262;27;20046;-58
2022/08/16 04:25:34;;;;;;;28.05;14.98;;;;;;;16.27;100.00;98533.53;5108541;28;20030;-58
2022/08/16 04:28:00;;;;;;;24.35;13.57;;;;;;;16.32;100.00;98538.88;5111014;27;20040;-60
2022/08/16 04:30:26;;;;;;;21.00;14.18;;;;;;;16.18;100.00;98534.22;5093302;28;20441;-60
2022/08/16 04:32:52;;;;;;;24.02;14.35;;;;;;;16.43;100.00;98534.09;5097650;28;20072;-58
2022/08/16 04:35:19;;;;;;;29.88;15.20;;;;;;;16.66;100.00;98545.84;5117930;27;20063;-58
2022/08/16 04:37:54;;;;;;;21.65;13.25;;;;;;;17.02;97.34;98544.09;5111517;27;20394;-58
2022/08/16 04:40:20;;;;;;;19.77;13.23;;;;;;;17.27;95.90;98558.19;5092745;28;20028;-58
2022/08/16 04:42:45;;;;;;;22.45;12.85;;;;;;;17.62;92.17;98555.84;5093274;28;20106;-58
2022/08/16 04:45:12;;;;;;;22.85;12.25;;;;;;;18.13;91.17;98562.03;5117238;27;20114;-61
2022/08/16 04:47:38;;;;;;;17.80;11.95;;;;;;;19.40;83.83;98563.28;5117152;27;20029;-59
2022/08/16 04:50:13;;;;;;;22.27;11.52;;;;;;;19.01;83.26;98564.91;5113039;27;20031;-57
2022/08/16 04:52:43;;;;;;;16.42;11.13;;;;;;;19.26;82.38;98565.31;5110803;28;20035;-57
2022/08/16 04:55:12;;;;;;;17.85;10.75;;;;;;;17.74;90.36;98569.66;5091421;28;20106;-57
2022/08/16 04:57:38;;;;;;;20.13;12.52;;;;;;;17.96;91.11;98562.69;5125242;27;20389;-58
2022/08/16 05:00:07;;;;;;;22.88;11.85;;;;;;;19.56;82.40;98569.84;5116716;27;20030;-57
2022/08/16 05:02:32;;;;;;;19.42;10.73;;;;;;;19.97;78.02;98565.91;5101358;27;20026;-58
2022/08/16 05:04:58;;;;;;;15.13;10.45;;;;;;;19.76;79.38;98568.47;5112293;28;20016;-58
2022/08/16 05:07:27;;;;;;;19.50;11.25;;;;;;;20.44;77.57;98566.03;5111451;28;20027;-58
2022/08/16 05:09:53;;;;;;;18.08;10.60;;;;;;;19.54;80.18;98566.63;5098963;28;21461;-58
2022/08/16 05:12:18;;;;;;;17.48;10.48;;;;;;;20.58;77.54;98570.50;5115107;28;20558;-59
2022/08/16 05:14:44;;;;;;;15.13;9.68;;;;;;;21.14;73.40;98575.88;5110913;28;20032;-58
2022/08/16 05:17:10;;;;;;;20.15;11.23;;;;;;;19.91;77.98;98583.50;5113737;28;20426;-58
2022/08/16 05:19:35;;;;;;;21.10;10.48;;;;;;;20.03;77.64;98591.03;5077643;28;20498;-59
2022/08/16 05:22:10;;;;;;;19.40;10.55;;;;;;;21.59;71.99;98591.69;5119153;27;20020;-58
2022/08/16 05:24:36;;;;;;;15.20;9.23;;;;;;;22.06;68.67;98581.41;5095773;28;20027;-61
2022/08/16 05:27:01;;;;;;;14.93;9.75;;;;;;;23.32;65.10;98594.72;5099082;28;20023;-58
2022/08/16 05:29:26;;;;;;;14.27;9.50;;;;;;;22.23;67.88;98593.34;5103004;28;20027;-58
2022/08/16 05:31:52;;;;;;;15.13;9.43;;;;;;;22.50;67.34;98597.41;5110331;28;20046;-58
2022/08/16 05:34:20;;;;;;;15.65;9.77;;;;;;;21.18;71.43;98604.88;5094034;28;20039;-57
2022/08/16 05:36:48;;;;;;;17.52;10.50;;;;;;;21.40;71.15;98605.78;5109953;28;20051;-58
2022/08/16 05:39:17;;;;;;;15.27;10.40;;;;;;;21.58;70.62;98590.91;5092081;28;20032;-58
2022/08/16 05:41:43;;;;;;;15.55;9.52;;;;;;;21.79;71.43;98587.38;5099716;28;20469;-58
2022/08/16 05:44:08;;;;;;;16.70;9.60;;;;;;;21.06;71.18;98580.25;5113762;28;20039;-58
2022/08/16 05:46:33;;;;;;;17.35;10.65;;;;;;;21.34;72.51;98577.84;5114159;28;20120;-58
2022/08/16 05:48:59;;;;;;;14.55;10.48;;;;;;;22.17;69.23;98585.31;5110214;28;20026;-60
2022/08/16 05:51:25;;;;;;;15.77;10.27;;;;;;;22.25;68.56;98589.13;5110952;28;20019;-60
2022/08/16 05:53:51;;;;;;;15.25;10.60;;;;;;;20.86;73.94;98595.38;5114038;27;20666;-57
2022/08/16 05:56:16;;;;;;;14.55;11.10;;;;;;;22.01;69.61;98602.63;5102206;27;20036;-57
2022/08/16 05:58:42;;;;;;;17.90;10.15;;;;;;;21.33;71.97;98593.41;5097158;28;20035;-57
2022/08/16 06:01:07;;;;;;;17.23;10.77;;;;;;;21.32;72.43;98605.47;5104482;28;20035;-58
2022/08/16 06:03:33;;;;;;;16.08;10.88;;;;;;;22.99;69.36;98603.81;5114963;27;20020;-57
2022/08/16 06:05:58;;;;;;;16.65;11.07;;;;;;;22.31;67.69;98617.00;5113487;27;20024;-57
2022/08/16 06:08:24;;;;;;;15.27;10.55;;;;;;;21.61;70.21;98609.31;5112815;27;20027;-57
2022/08/16 06:10:50;;;;;;;16.58;10.45;;;;;;;23.14;66.00;98626.13;5112943;27;20077;-57
2022/08/16 06:13:15;;;;;;;18.10;11.40;;;;;;;23.17;66.21;98614.53;5104524;27;20040;-57
2022/08/16 06:15:41;;;;;;;15.45;11.57;;;;;;;21.89;68.52;98608.81;5120836;27;20474;-57
2022/08/16 06:18:06;;;;;;;18.23;12.82;;;;;;;20.64;74.53;98618.19;5098076;28;20024;-57
2022/08/16 06:20:31;;;;;;;21.25;12.75;;;;;;;20.90;73.46;98624.38;5113605;27;20024;-57
2022/08/16 06:22:57;;;;;;;22.00;13.27;;;;;;;20.16;76.47;98619.97;5113910;27;20027;-57
2022/08/16 06:25:24;;;;;;;20.42;13.90;;;;;;;19.18;82.42;98622.03;5079148;28;20489;-57
2022/08/16 06:27:50;;;;;;;22.88;14.38;;;;;;;19.14;82.50;98617.53;5096174;28;20032;-57
2022/08/16 06:30:16;;;;;;;21.95;15.05;;;;;;;19.53;79.89;98619.41;5095786;28;20394;-57
2022/08/16 06:32:41;;;;;;;22.40;13.77;;;;;;;19.79;80.51;98629.56;5113636;27;20095;-57
2022/08/16 06:35:07;;;;;;;25.60;15.35;;;;;;;18.92;83.87;98629.25;5117166;27;20027;-57
2022/08/16 06:37:36;;;;;;;24.00;14.00;;;;;;;18.90;83.65;98628.78;5098092;28;20046;-57
2022/08/16 06:40:03;;;;;;;24.98;14.35;;;;;;;19.97;80.73;98633.13;5098875;27;20116;-57
2022/08/16 06:42:28;;;;;;;23.05;14.25;;;;;;;20.11;78.49;98628.31;5118735;27;20024;-57
2022/08/16 06:44:54;;;;;;;20.42;13.55;;;;;;;19.97;80.25;98624.97;5113099;27;20422;-57
2022/08/16 06:47:19;;;;;;;24.85;14.52;;;;;;;21.13;73.29;98639.69;5113140;27;20031;-57
2022/08/16 06:49:44;;;;;;;21.30;13.38;;;;;;;23.40;65.62;98645.75;5096017;27;20023;-57
2022/08/16 06:52:10;;;;;;;20.13;12.48;;;;;;;24.18;62.61;98652.03;5113392;27;20299;-57
2022/08/16 06:54:36;;;;;;;17.85;11.95;;;;;;;23.56;63.71;98643.09;5113597;27;20077;-57
2022/08/16 06:57:02;;;;;;;20.65;12.68;;;;;;;24.00;62.88;98648.00;5095159;28;20019;-57
2022/08/16 06:59:27;;;;;;;20.30;12.75;;;;;;;23.93;61.32;98645.84;5103253;27;20503;-57
2022/08/16 07:01:53;;;;;;;18.70;12.75;;;;;;;24.93;59.68;98647.84;5113033;27;20019;-58
2022/08/16 07:04:18;;;;;;;19.05;12.93;;;;;;;25.21;59.59;98652.50;5112940;27;20035;-58
2022/08/16 07:06:44;;;;;;;19.15;11.88;;;;;;;25.57;57.53;98649.47;5112204;27;20032;-57
2022/08/16 07:09:11;;;;;;;15.20;10.75;;;;;;;26.24;55.55;98654.13;5113118;27;20039;-57
2022/08/16 07:11:37;;;;;;;19.45;10.90;;;;;;;27.51;51.94;98656.06;5095037;28;20378;-58
2022/08/16 07:14:02;;;;;;;16.65;10.90;;;;;;;26.00;55.46;98655.16;5112504;27;20035;-58
2022/08/16 07:16:27;;;;;;;17.50;11.65;;;;;;;25.08;59.26;98660.78;5109846;28;20588;-58
2022/08/16 07:18:53;;;;;;;17.17;11.90;;;;;;;25.61;57.16;98664.09;5101032;28;20458;-57
2022/08/16 07:21:18;;;;;;;18.30;11.98;;;;;;;23.65;63.58;98667.63;5112226;27;20039;-57
2022/08/16 07:23:45;;;;;;;19.92;13.15;;;;;;;22.64;65.76;98657.19;5112704;27;20473;-57
2022/08/16 07:26:14;;;;;;;17.88;11.90;;;;;;;24.44;61.29;98648.88;5112478;27;20474;-57
2022/08/16 07:28:40;;;;;;;18.92;12.30;;;;;;;21.89;68.14;98649.72;5083256;28;20012;-57
2022/08/16 07:31:05;;;;;;;26.48;12.20;;;;;;;24.27;61.84;98655.44;5112365;27;20533;-57
2022/08/16 07:33:33;;;;;;;18.85;11.85;;;;;;;25.27;58.58;98649.16;5093949;28;20015;-57
2022/08/16 07:35:58;;;;;;;16.88;11.95;;;;;;;24.38;58.95;98657.69;5111838;27;20484;-57
2022/08/16 07:38:26;;;;;;;16.55;12.18;;;;;;;23.46;62.28;98649.03;5112686;27;20034;-58
2022/08/16 07:40:56;;;;;;;15.68;10.60;;;;;;;25.37;58.59;98656.06;5095101;28;20031;-57
2022/08/16 07:43:22;;;;;;;15.13;10.43;;;;;;;25.64;58.11;98643.38;5112455;27;20078;-57
2022/08/16 07:45:48;;;;;;;17.13;10.88;;;;;;;24.53;59.78;98656.97;5113117;27;20674;-57
2022/08/16 07:48:13;;;;;;;16.27;11.18;;;;;;;23.82;62.26;98651.00;5112013;27;20069;-57
2022/08/16 07:50:40;;;;;;;15.20;11.13;;;;;;;25.99;56.21;98653.59;5111424;27;20028;-57
2022/08/16 07:53:05;;;;;;;15.68;10.55;;;;;;;23.92;60.99;98666.13;5094027;27;20058;-57
2022/08/16 07:55:31;;;;;;;26.75;11.35;;;;;;;25.50;58.10;98662.22;5112190;27;20023;-57
2022/08/16 07:57:57;;;;;;;14.63;10.25;;;;;;;25.82;57.25;98660.22;5098491;27;20102;-58
2022/08/16 08:00:23;;;;;;;15.55;10.93;;;;;;;26.13;55.71;98650.34;5093881;28;20031;-57
2022/08/16 08:02:49;;;;;;;17.67;11.10;;;;;;;25.59;57.55;98660.91;5112177;27;20042;-57
2022/08/16 08:05:15;;;;;;;15.45;11.10;;;;;;;25.59;56.14;98662.84;5111348;27;20020;-57
2022/08/16 08:07:41;;;;;;;15.85;10.60;;;;;;;23.74;63.27;98665.59;5111865;28;20022;-57
2022/08/16 08:10:08;;;;;;;21.08;10.95;;;;;;;25.07;58.91;98667.41;5111759;27;20039;-57
2022/08/16 08:12:33;;;;;;;15.43;10.65;;;;;;;25.23;58.69;98661.97;5093456;28;20044;-57
2022/08/16 08:14:59;;;;;;;14.15;10.00;;;;;;;23.86;61.80;98654.66;5110644;27;20092;-57
2022/08/16 08:17:25;;;;;;;14.48;10.20;;;;;;;24.29;61.45;98666.06;5120123;27;20027;-57
2022/08/16 08:19:50;;;;;;;16.00;11.07;;;;;;;22.93;65.61;98659.78;5111026;27;20031;-57
2022/08/16 08:22:16;;;;;;;15.50;11.50;;;;;;;23.12;66.58;98656.53;5111714;27;20086;-57
2022/08/16 08:24:41;;;;;;;17.27;11.07;;;;;;;26.14;56.29;98651.94;5093839;28;20020;-57
2022/08/16 08:27:07;;;;;;;18.30;10.90;;;;;;;23.89;62.63;98653.94;5093226;28;20031;-57
2022/08/16 08:29:33;;;;;;;16.23;9.88;;;;;;;25.31;59.24;98657.44;5093606;27;20114;-57
2022/08/16 08:31:59;;;;;;;13.63;10.32;;;;;;;22.63;67.17;98659.13;5111817;27;20035;-59
2022/08/16 08:34:25;;;;;;;15.85;10.18;;;;;;;23.42;64.59;98653.63;5110965;27;20118;-56
2022/08/16 08:36:51;;;;;;;17.42;11.10;;;;;;;22.55;66.91;98658.06;5093160;28;20042;-57
2022/08/16 08:39:17;;;;;;;13.50;10.95;;;;;;;23.64;63.34;98660.56;5099147;28;20023;-57
2022/08/16 08:41:42;;;;;;;16.05;11.18;;;;;;;24.17;61.32;98655.94;5092781;27;20091;-57
2022/08/16 08:44:09;;;;;;;16.08;8.77;;;;;;;24.71;60.07;98658.28;5116612;27;20082;-57
2022/08/16 08:46:34;;;;;;;14.68;9.65;;;;;;;25.94;56.57;98665.63;5111139;27;20015;-59
2022/08/16 08:49:00;;;;;;;15.05;8.80;;;;;;;26.46;54.35;98669.09;5111112;27;20029;-57
2022/08/16 08:51:29;;;;;;;15.35;9.23;;;;;;;25.91;56.22;98674.59;5118727;27;20023;-57
2022/08/16 08:53:54;;;;;;;16.67;8.73;;;;;;;25.76;56.97;98672.63;5105995;28;20020;-58
2022/08/16 08:56:20;;;;;;;14.98;9.13;;;;;;;27.10;53.01;98677.75;5094603;28;20369;-57
2022/08/16 08:58:45;;;;;;;13.40;9.02;;;;;;;26.74;53.19;98679.88;5110810;28;20073;-57
2022/08/16 09:01:11;;;;;;;21.38;8.43;;;;;;;26.76;53.52;98676.72;5093874;28;20092;-57
2022/08/16 09:03:40;;;;;;;17.10;9.07;;;;;;;26.77;52.16;98679.13;5111053;28;20031;-57
2022/08/16 09:06:07;;;;;;;13.43;8.00;;;;;;;26.90;51.74;98682.50;5092862;28;20035;-57
2022/08/16 09:08:33;;;;;;;10.00;7.30;;;;;;;27.63;49.54;98677.06;5110799;28;20049;-57
2022/08/16 09:10:58;;;;;;;11.38;7.55;;;;;;;27.22;50.92;98674.06;5117211;28;20028;-57
2022/08/16 09:13:24;;;;;;;11.90;7.07;;;;;;;27.61;50.21;98688.47;5110587;28;20035;-57
2022/08/16 09:15:51;;;;;;;12.52;6.93;;;;;;;28.64;48.09;98682.84;5110650;28;20039;-57
2022/08/16 09:18:17;;;;;;;13.38;7.00;;;;;;;27.40;50.48;98688.13;5110636;28;20023;-57
2022/08/16 09:20:43;;;;;;;11.07;7.32;;;;;;;26.24;52.48;98687.06;5092352;28;20093;-57
2022/08/16 09:23:09;;;;;;;10.63;6.70;;;;;;;28.33;48.02;98693.06;5110806;28;20466;-57
2022/08/16 09:25:35;;;;;;;10.07;6.63;;;;;;;28.39;47.33;98691.56;5111910;28;20080;-57
2022/08/16 09:28:01;;;;;;;9.73;6.38;;;;;;;28.99;46.32;98693.44;5115400;27;20020;-56
2022/08/16 09:30:26;;;;;;;10.55;6.32;;;;;;;26.46;50.25;98691.06;5114884;27;20034;-57
2022/08/16 09:32:53;;;;;;;12.25;6.60;;;;;;;26.27;51.88;98686.34;5097657;27;20026;-57
2022/08/16 09:35:20;;;;;;;16.60;6.65;;;;;;;27.11;50.36;98691.16;5096791;27;20057;-57
2022/08/16 09:37:45;;;;;;;11.52;6.55;;;;;;;27.64;49.10;98684.97;5105690;27;20039;-57
2022/08/16 09:40:11;;;;;;;16.80;6.40;;;;;;;28.25;46.00;98691.38;5114790;27;20087;-57
2022/08/16 09:42:36;;;;;;;11.15;6.28;;;;;;;25.89;52.47;98693.38;5114645;27;20107;-59
2022/08/16 09:45:05;;;;;;;9.02;6.22;;;;;;;28.35;46.92;98689.91;5114456;27;20023;-57
2022/08/16 09:47:34;;;;;;;10.68;6.22;;;;;;;28.57;46.15;98691.00;5114626;27;20470;-57
2022/08/16 09:50:00;;;;;;;9.50;6.07;;;;;;;27.45;47.74;98688.59;5096487;28;20034;-56
2022/08/16 09:52:25;;;;;;;11.38;5.95;;;;;;;25.29;51.72;98685.25;5114709;27;20020;-58
2022/08/16 09:54:51;;;;;;;7.80;5.60;;;;;;;27.14;49.01;98686.88;5114552;27;20019;-59
2022/08/16 09:57:16;;;;;;;9.93;5.72;;;;;;;27.82;47.79;98690.78;5114400;27;20058;-58
2022/08/16 09:59:41;;;;;;;9.88;6.53;;;;;;;25.93;52.06;98686.00;5114876;27;20049;-58
2022/08/16 10:02:07;;;;;;;10.98;6.45;;;;;;;26.36;50.87;98681.44;5114262;27;20446;-55
2022/08/16 10:04:33;;;;;;;8.43;5.43;;;;;;;27.58;48.86;98678.19;5104384;27;20085;-56
2022/08/16 10:06:59;;;;;;;9.05;6.18;;;;;;;26.96;49.41;98694.00;5113199;27;20059;-58
2022/08/16 10:09:27;;;;;;;12.35;5.93;;;;;;;28.30;45.21;98691.03;5118362;27;20035;-56
2022/08/16 10:14:37;;;;;;;8.63;5.15;;;;;;;28.42;44.38;98695.53;5120760;27;20395;-57
2022/08/16 10:17:03;;;;;;;9.20;5.15;;;;;;;26.35;49.18;98688.06;5114273;27;20024;-57
2022/08/16 10:19:29;;;;;;;8.23;4.80;;;;;;;25.51;50.21;98683.84;5113498;27;20521;-57
2022/08/16 10:21:58;;;;;;;9.63;5.82;;;;;;;27.77;46.51;98679.25;5095570;28;20024;-56
2022/08/16 10:24:23;;;;;;;8.23;5.57;;;;;;;28.85;43.72;98685.00;5112144;27;20031;-56
2022/08/16 10:26:49;;;;;;;7.65;5.00;;;;;;;29.59;41.62;98681.38;5117062;27;20915;-57
2022/08/16 10:29:14;;;;;;;8.30;5.15;;;;;;;28.57;43.61;98691.81;5114095;27;20472;-57
2022/08/16 10:31:40;;;;;;;11.55;5.35;;;;;;;27.17;45.62;98677.88;5113777;27;20023;-57
2022/08/16 10:34:08;;;;;;;9.52;4.80;;;;;;;28.94;42.41;98677.25;5113976;27;20023;-57
2022/08/16 10:36:34;;;;;;;7.85;4.88;;;;;;;26.89;46.07;98678.19;5078790;27;20128;-57
2022/08/16 10:38:59;;;;;;;8.85;5.00;;;;;;;25.08;50.12;98681.91;5114944;27;20480;-58
2022/08/16 10:41:25;;;;;;;6.60;4.80;;;;;;;26.06;47.45;98696.84;5113593;27;20442;-58
2022/08/16 10:43:50;;;;;;;7.10;4.60;;;;;;;26.95;45.91;98682.19;5113717;27;20035;-57
2022/08/16 10:46:16;;;;;;;12.18;4.80;;;;;;;26.39;46.95;98693.66;5113329;27;20028;-57
2022/08/16 10:48:43;;;;;;;10.43;4.80;;;;;;;27.68;44.04;98685.84;5098235;27;20522;-57
2022/08/16 10:51:09;;;;;;;10.43;5.07;;;;;;;28.48;42.17;98688.56;5080163;27;20031;-57
2022/08/16 10:53:34;;;;;;;8.98;4.93;;;;;;;26.60;46.32;98690.56;5072644;28;20024;-57
2022/08/16 10:56:01;;;;;;;9.05;4.70;;;;;;;27.07;45.17;98687.53;5095241;28;20016;-57
2022/08/16 10:58:26;;;;;;;14.98;5.05;;;;;;;27.32;45.10;98684.47;5113765;27;20020;-57
2022/08/16 11:00:52;;;;;;;9.38;5.10;;;;;;;28.97;42.71;98693.03;5098462;28;20030;-57
2022/08/16 11:03:21;;;;;;;10.60;4.65;;;;;;;29.44;40.78;98690.72;5113130;27;20035;-57
2022/08/16 11:05:50;;;;;;;6.80;3.90;;;;;;;28.47;41.71;98681.44;5075386;27;20027;-57
2022/08/16 11:08:16;;;;;;;6.78;4.40;;;;;;;27.13;44.46;98688.03;5092648;27;20115;-57
2022/08/16 11:10:42;;;;;;;6.57;4.10;;;;;;;28.21;42.14;98690.53;5113147;27;21332;-56
2022/08/16 11:13:18;;;;;;;7.93;4.32;;;;;;;27.64;42.95;98696.00;5113075;27;20529;-57
2022/08/16 11:15:44;;;;;;;7.93;4.10;;;;;;;28.21;42.34;98692.47;5094491;27;20028;-57
2022/08/16 11:18:10;;;;;;;5.45;3.83;;;;;;;28.45;42.54;98692.03;5071581;27;20023;-56